sensor_id;sensor_type;location;lat;lon;timestamp;P1;durP1;ratioP1;P2;durP2;ratioP2
61036;SDS011;72210;47.076;15.430;2024-03-02T00:01:50;0.40;;;0.40;;
61036;SDS011;72210;47.076;15.430;2024-03-02T00:04:17;0.55;;;0.40;;
61036;SDS011;72210;47.076;15.430;2024-03-02T00:06:44;0.50;;;0.40;;
61036;SDS011;72210;47.076;15.430;2024-03-02T00:09:13;0.50;;;0.40;;
61036;SDS011;72210;47.076;15.430;2024-03-02T00:11:42;0.40;;;0.40;;
61036;SDS011;72210;47.076;15.430;2024-03-02T00:14:09;0.50;;;0.40;;
61036;SDS011;72210;47.076;15.430;2024-03-02T00:16:37;0.50;;;0.40;;
61036;SDS011;72210;47.076;15.430;2024-03-02T00:19:06;0.50;;;0.40;;
61036;SDS011;72210;47.076;15.430;2024-03-02T00:21:34;0.50;;;0.40;;
61036;SDS011;72210;47.076;15.430;2024-03-02T00:24:02;0.50;;;0.40;;
61036;SDS011;72210;47.076;15.430;2024-03-02T00:26:44;0.63;;;0.50;;
61036;SDS011;72210;47.076;15.430;2024-03-02T00:29:12;0.60;;;0.47;;
61036;SDS011;72210;47.076;15.430;2024-03-02T00:31:44;0.50;;;0.40;;
61036;SDS011;72210;47.076;15.430;2024-03-02T00:34:17;0.50;;;0.40;;
61036;SDS011;72210;47.076;15.430;2024-03-02T00:36:45;0.52;;;0.40;;
61036;SDS011;72210;47.076;15.430;2024-03-02T00:39:12;0.52;;;0.40;;
61036;SDS011;72210;47.076;15.430;2024-03-02T00:41:42;0.50;;;0.43;;
61036;SDS011;72210;47.076;15.430;2024-03-02T00:44:11;0.40;;;0.40;;
61036;SDS011;72210;47.076;15.430;2024-03-02T00:46:41;0.60;;;0.40;;
61036;SDS011;72210;47.076;15.430;2024-03-02T00:49:11;0.55;;;0.40;;
61036;SDS011;72210;47.076;15.430;2024-03-02T00:51:48;0.60;;;0.40;;
61036;SDS011;72210;47.076;15.430;2024-03-02T00:54:18;0.52;;;0.40;;
61036;SDS011;72210;47.076;15.430;2024-03-02T00:56:47;0.65;;;0.50;;
61036;SDS011;72210;47.076;15.430;2024-03-02T00:59:15;0.50;;;0.40;;
61036;SDS011;72210;47.076;15.430;2024-03-02T01:01:44;0.70;;;0.50;;
61036;SDS011;72210;47.076;15.430;2024-03-02T01:04:12;0.70;;;0.50;;
61036;SDS011;72210;47.076;15.430;2024-03-02T01:06:41;0.43;;;0.40;;
61036;SDS011;72210;47.076;15.430;2024-03-02T01:09:13;0.60;;;0.50;;
61036;SDS011;72210;47.076;15.430;2024-03-02T01:11:41;0.60;;;0.40;;
61036;SDS011;72210;47.076;15.430;2024-03-02T01:14:08;0.57;;;0.47;;
61036;SDS011;72210;47.076;15.430;2024-03-02T01:16:38;0.50;;;0.40;;
61036;SDS011;72210;47.076;15.430;2024-03-02T01:19:05;0.60;;;0.50;;
61036;SDS011;72210;47.076;15.430;2024-03-02T01:21:33;0.60;;;0.40;;
61036;SDS011;72210;47.076;15.430;2024-03-02T01:24:02;0.50;;;0.43;;
61036;SDS011;72210;47.076;15.430;2024-03-02T01:26:30;0.60;;;0.50;;
61036;SDS011;72210;47.076;15.430;2024-03-02T01:28:58;0.50;;;0.40;;
61036;SDS011;72210;47.076;15.430;2024-03-02T01:31:28;0.50;;;0.40;;
61036;SDS011;72210;47.076;15.430;2024-03-02T01:33:55;0.60;;;0.40;;
61036;SDS011;72210;47.076;15.430;2024-03-02T01:36:24;0.50;;;0.40;;
61036;SDS011;72210;47.076;15.430;2024-03-02T01:38:51;0.50;;;0.40;;
61036;SDS011;72210;47.076;15.430;2024-03-02T01:41:20;0.50;;;0.40;;
61036;SDS011;72210;47.076;15.430;2024-03-02T01:43:47;0.63;;;0.50;;
61036;SDS011;72210;47.076;15.430;2024-03-02T01:46:15;0.60;;;0.50;;
61036;SDS011;72210;47.076;15.430;2024-03-02T01:48:42;0.50;;;0.40;;
61036;SDS011;72210;47.076;15.430;2024-03-02T01:51:11;0.60;;;0.50;;
61036;SDS011;72210;47.076;15.430;2024-03-02T01:53:39;0.60;;;0.50;;
61036;SDS011;72210;47.076;15.430;2024-03-02T01:56:06;0.50;;;0.40;;
61036;SDS011;72210;47.076;15.430;2024-03-02T01:58:35;0.50;;;0.40;;
61036;SDS011;72210;47.076;15.430;2024-03-02T02:01:03;0.57;;;0.40;;
61036;SDS011;72210;47.076;15.430;2024-03-02T02:03:31;0.60;;;0.50;;
61036;SDS011;72210;47.076;15.430;2024-03-02T02:05:58;0.60;;;0.50;;
61036;SDS011;72210;47.076;15.430;2024-03-02T02:08:26;0.50;;;0.40;;
61036;SDS011;72210;47.076;15.430;2024-03-02T02:10:53;0.60;;;0.50;;
61036;SDS011;72210;47.076;15.430;2024-03-02T02:13:21;0.60;;;0.40;;
61036;SDS011;72210;47.076;15.430;2024-03-02T02:15:50;0.60;;;0.50;;
61036;SDS011;72210;47.076;15.430;2024-03-02T02:18:18;0.63;;;0.50;;
61036;SDS011;72210;47.076;15.430;2024-03-02T02:20:45;0.70;;;0.50;;
61036;SDS011;72210;47.076;15.430;2024-03-02T02:23:14;0.52;;;0.40;;
61036;SDS011;72210;47.076;15.430;2024-03-02T02:25:41;0.50;;;0.40;;
61036;SDS011;72210;47.076;15.430;2024-03-02T02:28:08;0.60;;;0.50;;
61036;SDS011;72210;47.076;15.430;2024-03-02T02:30:36;0.50;;;0.50;;
61036;SDS011;72210;47.076;15.430;2024-03-02T02:33:03;0.60;;;0.50;;
61036;SDS011;72210;47.076;15.430;2024-03-02T02:35:31;0.57;;;0.50;;
61036;SDS011;72210;47.076;15.430;2024-03-02T02:37:58;0.60;;;0.50;;
61036;SDS011;72210;47.076;15.430;2024-03-02T02:40:28;0.50;;;0.50;;
61036;SDS011;72210;47.076;15.430;2024-03-02T02:42:56;0.60;;;0.50;;
61036;SDS011;72210;47.076;15.430;2024-03-02T02:45:23;0.50;;;0.40;;
61036;SDS011;72210;47.076;15.430;2024-03-02T02:47:51;0.50;;;0.40;;
61036;SDS011;72210;47.076;15.430;2024-03-02T02:50:18;0.40;;;0.40;;
61036;SDS011;72210;47.076;15.430;2024-03-02T02:52:45;0.60;;;0.50;;
61036;SDS011;72210;47.076;15.430;2024-03-02T02:55:13;0.60;;;0.40;;
61036;SDS011;72210;47.076;15.430;2024-03-02T02:57:42;0.50;;;0.40;;
61036;SDS011;72210;47.076;15.430;2024-03-02T03:00:11;0.47;;;0.40;;
61036;SDS011;72210;47.076;15.430;2024-03-02T03:02:39;0.90;;;0.50;;
61036;SDS011;72210;47.076;15.430;2024-03-02T03:05:09;0.60;;;0.50;;
61036;SDS011;72210;47.076;15.430;2024-03-02T03:07:39;0.60;;;0.40;;
61036;SDS011;72210;47.076;15.430;2024-03-02T03:10:08;0.60;;;0.47;;
61036;SDS011;72210;47.076;15.430;2024-03-02T03:12:36;0.50;;;0.40;;
61036;SDS011;72210;47.076;15.430;2024-03-02T03:15:06;0.60;;;0.50;;
61036;SDS011;72210;47.076;15.430;2024-03-02T03:17:36;0.60;;;0.50;;
61036;SDS011;72210;47.076;15.430;2024-03-02T03:20:04;0.50;;;0.40;;
61036;SDS011;72210;47.076;15.430;2024-03-02T03:22:33;0.50;;;0.40;;
61036;SDS011;72210;47.076;15.430;2024-03-02T03:25:00;0.60;;;0.50;;
61036;SDS011;72210;47.076;15.430;2024-03-02T03:27:27;0.60;;;0.50;;
61036;SDS011;72210;47.076;15.430;2024-03-02T03:29:55;0.40;;;0.40;;
61036;SDS011;72210;47.076;15.430;2024-03-02T03:32:24;0.50;;;0.50;;
61036;SDS011;72210;47.076;15.430;2024-03-02T03:34:51;0.57;;;0.40;;
61036;SDS011;72210;47.076;15.430;2024-03-02T03:37:19;0.40;;;0.40;;
61036;SDS011;72210;47.076;15.430;2024-03-02T03:39:46;0.60;;;0.50;;
61036;SDS011;72210;47.076;15.430;2024-03-02T03:42:14;0.50;;;0.40;;
61036;SDS011;72210;47.076;15.430;2024-03-02T03:44:42;0.50;;;0.40;;
61036;SDS011;72210;47.076;15.430;2024-03-02T03:47:10;0.60;;;0.47;;
61036;SDS011;72210;47.076;15.430;2024-03-02T03:49:39;0.50;;;0.40;;
61036;SDS011;72210;47.076;15.430;2024-03-02T03:52:06;0.55;;;0.40;;
61036;SDS011;72210;47.076;15.430;2024-03-02T03:54:34;0.50;;;0.40;;
61036;SDS011;72210;47.076;15.430;2024-03-02T03:57:02;0.50;;;0.40;;
61036;SDS011;72210;47.076;15.430;2024-03-02T03:59:29;0.50;;;0.40;;
61036;SDS011;72210;47.076;15.430;2024-03-02T04:01:57;0.55;;;0.40;;
61036;SDS011;72210;47.076;15.430;2024-03-02T04:04:25;0.40;;;0.40;;
61036;SDS011;72210;47.076;15.430;2024-03-02T04:06:54;0.55;;;0.43;;
61036;SDS011;72210;47.076;15.430;2024-03-02T04:09:21;0.60;;;0.50;;
61036;SDS011;72210;47.076;15.430;2024-03-02T04:11:49;0.50;;;0.40;;
61036;SDS011;72210;47.076;15.430;2024-03-02T04:14:17;0.60;;;0.43;;
61036;SDS011;72210;47.076;15.430;2024-03-02T04:16:44;0.50;;;0.40;;
61036;SDS011;72210;47.076;15.430;2024-03-02T04:19:12;0.63;;;0.50;;
61036;SDS011;72210;47.076;15.430;2024-03-02T04:21:40;0.60;;;0.50;;
61036;SDS011;72210;47.076;15.430;2024-03-02T04:24:09;0.50;;;0.40;;
61036;SDS011;72210;47.076;15.430;2024-03-02T04:26:37;0.50;;;0.40;;
61036;SDS011;72210;47.076;15.430;2024-03-02T04:29:04;0.50;;;0.40;;
61036;SDS011;72210;47.076;15.430;2024-03-02T04:31:31;0.50;;;0.40;;
61036;SDS011;72210;47.076;15.430;2024-03-02T04:33:59;0.52;;;0.43;;
61036;SDS011;72210;47.076;15.430;2024-03-02T04:36:27;0.55;;;0.43;;
61036;SDS011;72210;47.076;15.430;2024-03-02T04:38:54;0.50;;;0.40;;
61036;SDS011;72210;47.076;15.430;2024-03-02T04:41:24;0.57;;;0.50;;
61036;SDS011;72210;47.076;15.430;2024-03-02T04:43:55;0.40;;;0.40;;
61036;SDS011;72210;47.076;15.430;2024-03-02T04:46:23;0.55;;;0.40;;
61036;SDS011;72210;47.076;15.430;2024-03-02T04:48:51;0.70;;;0.50;;
61036;SDS011;72210;47.076;15.430;2024-03-02T04:51:19;0.60;;;0.50;;
61036;SDS011;72210;47.076;15.430;2024-03-02T04:53:47;0.60;;;0.50;;
61036;SDS011;72210;47.076;15.430;2024-03-02T04:56:14;0.50;;;0.40;;
61036;SDS011;72210;47.076;15.430;2024-03-02T04:58:43;0.60;;;0.50;;
61036;SDS011;72210;47.076;15.430;2024-03-02T05:01:11;0.50;;;0.43;;
61036;SDS011;72210;47.076;15.430;2024-03-02T05:03:38;0.60;;;0.50;;
61036;SDS011;72210;47.076;15.430;2024-03-02T05:06:06;0.50;;;0.40;;
61036;SDS011;72210;47.076;15.430;2024-03-02T05:08:34;0.50;;;0.50;;
61036;SDS011;72210;47.076;15.430;2024-03-02T05:11:03;0.50;;;0.50;;
61036;SDS011;72210;47.076;15.430;2024-03-02T05:13:33;0.60;;;0.50;;
61036;SDS011;72210;47.076;15.430;2024-03-02T05:16:05;0.50;;;0.50;;
61036;SDS011;72210;47.076;15.430;2024-03-02T05:18:33;0.50;;;0.40;;
61036;SDS011;72210;47.076;15.430;2024-03-02T05:21:00;0.50;;;0.40;;
61036;SDS011;72210;47.076;15.430;2024-03-02T05:23:27;0.50;;;0.50;;
61036;SDS011;72210;47.076;15.430;2024-03-02T05:25:55;0.60;;;0.50;;
61036;SDS011;72210;47.076;15.430;2024-03-02T05:28:22;0.60;;;0.50;;
61036;SDS011;72210;47.076;15.430;2024-03-02T05:30:50;0.50;;;0.40;;
61036;SDS011;72210;47.076;15.430;2024-03-02T05:33:19;0.50;;;0.40;;
61036;SDS011;72210;47.076;15.430;2024-03-02T05:35:46;0.60;;;0.47;;
61036;SDS011;72210;47.076;15.430;2024-03-02T05:38:14;0.50;;;0.40;;
61036;SDS011;72210;47.076;15.430;2024-03-02T05:40:41;0.50;;;0.40;;
61036;SDS011;72210;47.076;15.430;2024-03-02T05:43:09;0.50;;;0.40;;
61036;SDS011;72210;47.076;15.430;2024-03-02T05:45:36;0.63;;;0.50;;
61036;SDS011;72210;47.076;15.430;2024-03-02T05:48:04;0.50;;;0.40;;
61036;SDS011;72210;47.076;15.430;2024-03-02T05:50:34;0.50;;;0.50;;
61036;SDS011;72210;47.076;15.430;2024-03-02T05:53:03;0.60;;;0.40;;
61036;SDS011;72210;47.076;15.430;2024-03-02T05:55:30;0.50;;;0.40;;
61036;SDS011;72210;47.076;15.430;2024-03-02T05:57:58;0.60;;;0.50;;
61036;SDS011;72210;47.076;15.430;2024-03-02T06:00:25;0.70;;;0.50;;
61036;SDS011;72210;47.076;15.430;2024-03-02T06:02:53;0.50;;;0.50;;
61036;SDS011;72210;47.076;15.430;2024-03-02T06:05:20;0.60;;;0.50;;
61036;SDS011;72210;47.076;15.430;2024-03-02T06:07:52;0.50;;;0.50;;
61036;SDS011;72210;47.076;15.430;2024-03-02T06:10:19;0.60;;;0.50;;
61036;SDS011;72210;47.076;15.430;2024-03-02T06:12:49;0.60;;;0.45;;
61036;SDS011;72210;47.076;15.430;2024-03-02T06:15:17;0.60;;;0.50;;
61036;SDS011;72210;47.076;15.430;2024-03-02T06:17:45;0.60;;;0.47;;
61036;SDS011;72210;47.076;15.430;2024-03-02T06:20:12;0.50;;;0.40;;
61036;SDS011;72210;47.076;15.430;2024-03-02T06:22:39;0.60;;;0.40;;
61036;SDS011;72210;47.076;15.430;2024-03-02T06:25:09;0.60;;;0.45;;
61036;SDS011;72210;47.076;15.430;2024-03-02T06:27:36;0.50;;;0.40;;
61036;SDS011;72210;47.076;15.430;2024-03-02T06:30:03;0.50;;;0.45;;
61036;SDS011;72210;47.076;15.430;2024-03-02T06:32:32;0.63;;;0.50;;
61036;SDS011;72210;47.076;15.430;2024-03-02T06:35:01;0.50;;;0.40;;
61036;SDS011;72210;47.076;15.430;2024-03-02T06:37:32;0.60;;;0.50;;
61036;SDS011;72210;47.076;15.430;2024-03-02T06:39:59;0.50;;;0.40;;
61036;SDS011;72210;47.076;15.430;2024-03-02T06:42:29;0.50;;;0.40;;
61036;SDS011;72210;47.076;15.430;2024-03-02T06:44:57;0.60;;;0.50;;
61036;SDS011;72210;47.076;15.430;2024-03-02T06:47:25;0.60;;;0.50;;
61036;SDS011;72210;47.076;15.430;2024-03-02T06:49:53;0.50;;;0.40;;
61036;SDS011;72210;47.076;15.430;2024-03-02T06:52:20;0.50;;;0.40;;
61036;SDS011;72210;47.076;15.430;2024-03-02T06:54:50;0.60;;;0.40;;
61036;SDS011;72210;47.076;15.430;2024-03-02T06:57:18;0.50;;;0.40;;
61036;SDS011;72210;47.076;15.430;2024-03-02T06:59:47;0.60;;;0.40;;
61036;SDS011;72210;47.076;15.430;2024-03-02T07:02:14;0.50;;;0.40;;
61036;SDS011;72210;47.076;15.430;2024-03-02T07:04:41;0.73;;;0.50;;
61036;SDS011;72210;47.076;15.430;2024-03-02T07:07:09;0.50;;;0.40;;
61036;SDS011;72210;47.076;15.430;2024-03-02T07:09:38;0.40;;;0.40;;
61036;SDS011;72210;47.076;15.430;2024-03-02T07:12:06;0.40;;;0.40;;
61036;SDS011;72210;47.076;15.430;2024-03-02T07:14:34;0.50;;;0.40;;
61036;SDS011;72210;47.076;15.430;2024-03-02T07:17:03;0.60;;;0.50;;
61036;SDS011;72210;47.076;15.430;2024-03-02T07:19:31;0.70;;;0.50;;
61036;SDS011;72210;47.076;15.430;2024-03-02T07:21:58;0.60;;;0.50;;
61036;SDS011;72210;47.076;15.430;2024-03-02T07:24:26;0.50;;;0.40;;
61036;SDS011;72210;47.076;15.430;2024-03-02T07:26:54;0.50;;;0.40;;
61036;SDS011;72210;47.076;15.430;2024-03-02T07:29:21;0.50;;;0.45;;
61036;SDS011;72210;47.076;15.430;2024-03-02T07:31:49;0.60;;;0.50;;
61036;SDS011;72210;47.076;15.430;2024-03-02T07:34:19;0.50;;;0.40;;
61036;SDS011;72210;47.076;15.430;2024-03-02T07:36:46;0.50;;;0.40;;
61036;SDS011;72210;47.076;15.430;2024-03-02T07:39:14;0.50;;;0.40;;
61036;SDS011;72210;47.076;15.430;2024-03-02T07:41:42;0.50;;;0.43;;
61036;SDS011;72210;47.076;15.430;2024-03-02T07:44:10;0.60;;;0.40;;
61036;SDS011;72210;47.076;15.430;2024-03-02T07:46:37;0.50;;;0.40;;
61036;SDS011;72210;47.076;15.430;2024-03-02T07:49:05;0.50;;;0.40;;
61036;SDS011;72210;47.076;15.430;2024-03-02T07:51:34;0.52;;;0.43;;
61036;SDS011;72210;47.076;15.430;2024-03-02T07:54:01;0.60;;;0.50;;
61036;SDS011;72210;47.076;15.430;2024-03-02T07:56:30;0.50;;;0.40;;
61036;SDS011;72210;47.076;15.430;2024-03-02T07:58:57;0.50;;;0.40;;
61036;SDS011;72210;47.076;15.430;2024-03-02T08:01:26;0.60;;;0.47;;
61036;SDS011;72210;47.076;15.430;2024-03-02T08:03:54;0.30;;;0.30;;
61036;SDS011;72210;47.076;15.430;2024-03-02T08:06:21;0.85;;;0.45;;
61036;SDS011;72210;47.076;15.430;2024-03-02T08:08:51;0.60;;;0.40;;
61036;SDS011;72210;47.076;15.430;2024-03-02T08:11:19;0.40;;;0.40;;
61036;SDS011;72210;47.076;15.430;2024-03-02T08:13:46;0.43;;;0.40;;
61036;SDS011;72210;47.076;15.430;2024-03-02T08:16:14;0.50;;;0.43;;
61036;SDS011;72210;47.076;15.430;2024-03-02T08:18:42;0.40;;;0.40;;
61036;SDS011;72210;47.076;15.430;2024-03-02T08:21:09;0.40;;;0.40;;
61036;SDS011;72210;47.076;15.430;2024-03-02T08:23:37;0.45;;;0.40;;
61036;SDS011;72210;47.076;15.430;2024-03-02T08:26:09;0.52;;;0.40;;
61036;SDS011;72210;47.076;15.430;2024-03-02T08:28:37;0.50;;;0.40;;
61036;SDS011;72210;47.076;15.430;2024-03-02T08:31:06;0.50;;;0.40;;
61036;SDS011;72210;47.076;15.430;2024-03-02T08:33:34;0.60;;;0.47;;
61036;SDS011;72210;47.076;15.430;2024-03-02T08:36:04;0.40;;;0.40;;
61036;SDS011;72210;47.076;15.430;2024-03-02T08:38:32;0.50;;;0.40;;
61036;SDS011;72210;47.076;15.430;2024-03-02T08:41:00;0.50;;;0.40;;
61036;SDS011;72210;47.076;15.430;2024-03-02T08:43:29;0.40;;;0.40;;
61036;SDS011;72210;47.076;15.430;2024-03-02T08:45:57;0.40;;;0.40;;
61036;SDS011;72210;47.076;15.430;2024-03-02T08:48:24;0.60;;;0.50;;
61036;SDS011;72210;47.076;15.430;2024-03-02T08:50:53;0.60;;;0.50;;
61036;SDS011;72210;47.076;15.430;2024-03-02T08:53:21;0.60;;;0.40;;
61036;SDS011;72210;47.076;15.430;2024-03-02T08:55:48;0.40;;;0.40;;
61036;SDS011;72210;47.076;15.430;2024-03-02T08:58:15;0.40;;;0.40;;
61036;SDS011;72210;47.076;15.430;2024-03-02T09:00:45;0.70;;;0.57;;
61036;SDS011;72210;47.076;15.430;2024-03-02T09:03:14;0.60;;;0.50;;
61036;SDS011;72210;47.076;15.430;2024-03-02T09:05:41;0.60;;;0.52;;
61036;SDS011;72210;47.076;15.430;2024-03-02T09:08:08;0.60;;;0.50;;
61036;SDS011;72210;47.076;15.430;2024-03-02T09:10:37;0.60;;;0.50;;
61036;SDS011;72210;47.076;15.430;2024-03-02T09:13:05;0.50;;;0.43;;
61036;SDS011;72210;47.076;15.430;2024-03-02T09:15:33;0.68;;;0.50;;
61036;SDS011;72210;47.076;15.430;2024-03-02T09:18:05;0.43;;;0.40;;
61036;SDS011;72210;47.076;15.430;2024-03-02T09:20:32;0.60;;;0.50;;
61036;SDS011;72210;47.076;15.430;2024-03-02T09:23:01;0.30;;;0.30;;
61036;SDS011;72210;47.076;15.430;2024-03-02T09:25:29;0.45;;;0.40;;
61036;SDS011;72210;47.076;15.430;2024-03-02T09:27:56;0.30;;;0.30;;
61036;SDS011;72210;47.076;15.430;2024-03-02T09:30:24;0.30;;;0.30;;
61036;SDS011;72210;47.076;15.430;2024-03-02T09:32:53;0.47;;;0.40;;
61036;SDS011;72210;47.076;15.430;2024-03-02T09:35:43;0.50;;;0.40;;
61036;SDS011;72210;47.076;15.430;2024-03-02T09:38:10;0.30;;;0.20;;
61036;SDS011;72210;47.076;15.430;2024-03-02T09:40:41;0.70;;;0.30;;
61036;SDS011;72210;47.076;15.430;2024-03-02T09:43:09;0.40;;;0.35;;
61036;SDS011;72210;47.076;15.430;2024-03-02T09:45:36;0.50;;;0.47;;
61036;SDS011;72210;47.076;15.430;2024-03-02T09:48:07;0.35;;;0.35;;
61036;SDS011;72210;47.076;15.430;2024-03-02T09:50:34;0.47;;;0.35;;
61036;SDS011;72210;47.076;15.430;2024-03-02T09:53:06;0.30;;;0.30;;
61036;SDS011;72210;47.076;15.430;2024-03-02T09:55:35;0.40;;;0.40;;
61036;SDS011;72210;47.076;15.430;2024-03-02T09:58:03;0.35;;;0.30;;
61036;SDS011;72210;47.076;15.430;2024-03-02T10:00:30;0.30;;;0.30;;
61036;SDS011;72210;47.076;15.430;2024-03-02T10:02:58;0.35;;;0.35;;
61036;SDS011;72210;47.076;15.430;2024-03-02T10:05:26;0.30;;;0.30;;
61036;SDS011;72210;47.076;15.430;2024-03-02T10:08:00;0.32;;;0.30;;
61036;SDS011;72210;47.076;15.430;2024-03-02T10:10:36;0.68;;;0.50;;
61036;SDS011;72210;47.076;15.430;2024-03-02T10:13:04;0.30;;;0.30;;
61036;SDS011;72210;47.076;15.430;2024-03-02T10:15:33;0.63;;;0.50;;
61036;SDS011;72210;47.076;15.430;2024-03-02T10:18:02;0.65;;;0.52;;
61036;SDS011;72210;47.076;15.430;2024-03-02T10:20:30;0.63;;;0.50;;
61036;SDS011;72210;47.076;15.430;2024-03-02T10:22:59;0.50;;;0.40;;
61036;SDS011;72210;47.076;15.430;2024-03-02T10:25:38;0.50;;;0.40;;
61036;SDS011;72210;47.076;15.430;2024-03-02T10:28:20;0.32;;;0.25;;
61036;SDS011;72210;47.076;15.430;2024-03-02T10:30:47;0.40;;;0.30;;
61036;SDS011;72210;47.076;15.430;2024-03-02T10:33:15;0.40;;;0.35;;
61036;SDS011;72210;47.076;15.430;2024-03-02T10:35:45;0.60;;;0.50;;
61036;SDS011;72210;47.076;15.430;2024-03-02T10:38:15;0.90;;;0.70;;
61036;SDS011;72210;47.076;15.430;2024-03-02T10:40:48;0.75;;;0.60;;
61036;SDS011;72210;47.076;15.430;2024-03-02T10:43:15;0.70;;;0.50;;
61036;SDS011;72210;47.076;15.430;2024-03-02T10:45:45;0.60;;;0.50;;
61036;SDS011;72210;47.076;15.430;2024-03-02T10:48:16;0.55;;;0.47;;
61036;SDS011;72210;47.076;15.430;2024-03-02T10:50:43;0.50;;;0.40;;
61036;SDS011;72210;47.076;15.430;2024-03-02T10:53:10;0.40;;;0.30;;
61036;SDS011;72210;47.076;15.430;2024-03-02T10:55:38;0.38;;;0.30;;
61036;SDS011;72210;47.076;15.430;2024-03-02T10:58:07;0.30;;;0.30;;
61036;SDS011;72210;47.076;15.430;2024-03-02T11:00:40;0.40;;;0.30;;
61036;SDS011;72210;47.076;15.430;2024-03-02T11:03:10;0.32;;;0.30;;
61036;SDS011;72210;47.076;15.430;2024-03-02T11:05:40;0.40;;;0.35;;
61036;SDS011;72210;47.076;15.430;2024-03-02T11:08:12;0.30;;;0.30;;
61036;SDS011;72210;47.076;15.430;2024-03-02T11:10:45;0.40;;;0.30;;
61036;SDS011;72210;47.076;15.430;2024-03-02T11:13:19;0.38;;;0.30;;
61036;SDS011;72210;47.076;15.430;2024-03-02T11:15:48;0.45;;;0.40;;
61036;SDS011;72210;47.076;15.430;2024-03-02T11:18:19;0.40;;;0.40;;
61036;SDS011;72210;47.076;15.430;2024-03-02T11:20:46;0.40;;;0.30;;
61036;SDS011;72210;47.076;15.430;2024-03-02T11:23:14;0.57;;;0.43;;
61036;SDS011;72210;47.076;15.430;2024-03-02T11:25:44;0.40;;;0.30;;
61036;SDS011;72210;47.076;15.430;2024-03-02T11:28:11;0.40;;;0.30;;
61036;SDS011;72210;47.076;15.430;2024-03-02T11:30:51;0.40;;;0.32;;
61036;SDS011;72210;47.076;15.430;2024-03-02T11:33:25;0.40;;;0.30;;
61036;SDS011;72210;47.076;15.430;2024-03-02T11:35:55;0.40;;;0.38;;
61036;SDS011;72210;47.076;15.430;2024-03-02T11:38:27;0.35;;;0.30;;
61036;SDS011;72210;47.076;15.430;2024-03-02T11:40:56;0.40;;;0.30;;
61036;SDS011;72210;47.076;15.430;2024-03-02T11:43:27;0.40;;;0.30;;
61036;SDS011;72210;47.076;15.430;2024-03-02T11:46:00;0.38;;;0.30;;
61036;SDS011;72210;47.076;15.430;2024-03-02T11:48:30;0.30;;;0.20;;
61036;SDS011;72210;47.076;15.430;2024-03-02T11:50:58;0.25;;;0.25;;
61036;SDS011;72210;47.076;15.430;2024-03-02T11:53:27;0.30;;;0.20;;
61036;SDS011;72210;47.076;15.430;2024-03-02T11:55:58;0.38;;;0.30;;
61036;SDS011;72210;47.076;15.430;2024-03-02T11:58:25;0.30;;;0.20;;
61036;SDS011;72210;47.076;15.430;2024-03-02T12:00:53;0.30;;;0.28;;
61036;SDS011;72210;47.076;15.430;2024-03-02T12:03:24;0.40;;;0.30;;
61036;SDS011;72210;47.076;15.430;2024-03-02T12:05:53;0.30;;;0.20;;
61036;SDS011;72210;47.076;15.430;2024-03-02T12:08:21;0.20;;;0.20;;
61036;SDS011;72210;47.076;15.430;2024-03-02T12:10:56;0.40;;;0.30;;
61036;SDS011;72210;47.076;15.430;2024-03-02T12:13:24;0.25;;;0.22;;
61036;SDS011;72210;47.076;15.430;2024-03-02T12:15:53;0.13;;;0.10;;
61036;SDS011;72210;47.076;15.430;2024-03-02T12:18:23;0.10;;;0.10;;
61036;SDS011;72210;47.076;15.430;2024-03-02T12:20:50;0.05;;;0.05;;
61036;SDS011;72210;47.076;15.430;2024-03-02T12:23:19;0.10;;;0.10;;
61036;SDS011;72210;47.076;15.430;2024-03-02T12:25:47;0.13;;;0.10;;
61036;SDS011;72210;47.076;15.430;2024-03-02T12:28:15;0.10;;;0.10;;
61036;SDS011;72210;47.076;15.430;2024-03-02T12:30:43;0.10;;;0.10;;
61036;SDS011;72210;47.076;15.430;2024-03-02T12:33:12;0.20;;;0.20;;
61036;SDS011;72210;47.076;15.430;2024-03-02T12:35:41;0.20;;;0.20;;
61036;SDS011;72210;47.076;15.430;2024-03-02T12:38:09;0.20;;;0.20;;
61036;SDS011;72210;47.076;15.430;2024-03-02T12:40:38;0.20;;;0.20;;
61036;SDS011;72210;47.076;15.430;2024-03-02T12:43:06;0.40;;;0.30;;
61036;SDS011;72210;47.076;15.430;2024-03-02T12:45:33;0.20;;;0.20;;
61036;SDS011;72210;47.076;15.430;2024-03-02T12:48:00;0.20;;;0.20;;
61036;SDS011;72210;47.076;15.430;2024-03-02T12:50:28;0.30;;;0.20;;
61036;SDS011;72210;47.076;15.430;2024-03-02T12:52:58;0.32;;;0.30;;
61036;SDS011;72210;47.076;15.430;2024-03-02T12:55:26;0.20;;;0.20;;
61036;SDS011;72210;47.076;15.430;2024-03-02T12:57:54;0.30;;;0.22;;
61036;SDS011;72210;47.076;15.430;2024-03-02T13:00:22;0.32;;;0.22;;
61036;SDS011;72210;47.076;15.430;2024-03-02T13:02:49;0.30;;;0.20;;
61036;SDS011;72210;47.076;15.430;2024-03-02T13:05:19;0.32;;;0.28;;
61036;SDS011;72210;47.076;15.430;2024-03-02T13:07:47;0.30;;;0.20;;
61036;SDS011;72210;47.076;15.430;2024-03-02T13:10:17;0.32;;;0.30;;
61036;SDS011;72210;47.076;15.430;2024-03-02T13:12:45;0.30;;;0.20;;
61036;SDS011;72210;47.076;15.430;2024-03-02T13:15:13;0.22;;;0.20;;
61036;SDS011;72210;47.076;15.430;2024-03-02T13:17:44;0.40;;;0.30;;
61036;SDS011;72210;47.076;15.430;2024-03-02T13:20:12;0.40;;;0.38;;
61036;SDS011;72210;47.076;15.430;2024-03-02T13:22:39;0.30;;;0.22;;
61036;SDS011;72210;47.076;15.430;2024-03-02T13:25:07;0.20;;;0.20;;
61036;SDS011;72210;47.076;15.430;2024-03-02T13:27:36;0.30;;;0.20;;
61036;SDS011;72210;47.076;15.430;2024-03-02T13:30:04;0.32;;;0.30;;
61036;SDS011;72210;47.076;15.430;2024-03-02T13:32:32;0.40;;;0.32;;
61036;SDS011;72210;47.076;15.430;2024-03-02T13:34:59;0.30;;;0.20;;
61036;SDS011;72210;47.076;15.430;2024-03-02T13:37:28;0.30;;;0.20;;
61036;SDS011;72210;47.076;15.430;2024-03-02T13:39:55;0.38;;;0.30;;
61036;SDS011;72210;47.076;15.430;2024-03-02T13:42:23;0.30;;;0.30;;
61036;SDS011;72210;47.076;15.430;2024-03-02T13:44:53;0.30;;;0.20;;
61036;SDS011;72210;47.076;15.430;2024-03-02T13:47:21;0.30;;;0.20;;
61036;SDS011;72210;47.076;15.430;2024-03-02T13:49:49;0.30;;;0.30;;
61036;SDS011;72210;47.076;15.430;2024-03-02T13:52:16;0.30;;;0.30;;
61036;SDS011;72210;47.076;15.430;2024-03-02T13:54:44;0.28;;;0.20;;
61036;SDS011;72210;47.076;15.430;2024-03-02T13:57:13;0.55;;;0.40;;
61036;SDS011;72210;47.076;15.430;2024-03-02T13:59:41;0.30;;;0.30;;
61036;SDS011;72210;47.076;15.430;2024-03-02T14:02:11;0.20;;;0.20;;
61036;SDS011;72210;47.076;15.430;2024-03-02T14:04:39;0.35;;;0.30;;
61036;SDS011;72210;47.076;15.430;2024-03-02T14:07:07;0.30;;;0.28;;
61036;SDS011;72210;47.076;15.430;2024-03-02T14:09:35;0.40;;;0.30;;
61036;SDS011;72210;47.076;15.430;2024-03-02T14:12:05;0.20;;;0.20;;
61036;SDS011;72210;47.076;15.430;2024-03-02T14:14:34;0.20;;;0.20;;
61036;SDS011;72210;47.076;15.430;2024-03-02T14:17:01;0.30;;;0.20;;
61036;SDS011;72210;47.076;15.430;2024-03-02T14:19:31;0.30;;;0.30;;
61036;SDS011;72210;47.076;15.430;2024-03-02T14:21:58;0.30;;;0.30;;
61036;SDS011;72210;47.076;15.430;2024-03-02T14:24:26;0.30;;;0.30;;
61036;SDS011;72210;47.076;15.430;2024-03-02T14:26:54;0.30;;;0.30;;
61036;SDS011;72210;47.076;15.430;2024-03-02T14:29:35;0.40;;;0.32;;
61036;SDS011;72210;47.076;15.430;2024-03-02T14:32:05;0.30;;;0.25;;
61036;SDS011;72210;47.076;15.430;2024-03-02T14:34:36;0.40;;;0.30;;
61036;SDS011;72210;47.076;15.430;2024-03-02T14:37:07;0.20;;;0.20;;
61036;SDS011;72210;47.076;15.430;2024-03-02T14:39:35;0.30;;;0.30;;
61036;SDS011;72210;47.076;15.430;2024-03-02T14:42:02;0.40;;;0.32;;